CheckWX is a tool to help pilots better visualize weather data.  It is not intended as a substitute for an official pre-flight weather briefing.

08:38:10 UTC

PGUM METAR
Guam International Airport
Guam, Guam
Current

44 mins ago

PGUM 170754Z 06014KT 10SM FEW024 30/21 A2983 RMK AO2 SLP093 T03000211
Observed
Jul-17 @ 07:54 UTC
Wind
  • 060° at 14 KTS
Visibility
16,100 meters
Flight Rules
VFR
Cloud Levels
  • Few at 2,400' AGL
Temperature
30°C / 86°F
Dewpoint
21°C / 70°F
Heat Index
33°C / 91°F
Humidity
59%
Altimeter
29.83" Hg
Pressure
1010.12 hPa
Previous

2 hours ago

PGUM 170654Z 08006KT 10SM FEW035 32/23 A2982 RMK AO2 SLP088 T03170228
Observed
Jul-17 @ 06:54 UTC
Wind
  • 080° at 6 KTS
Visibility
16,100 meters
Flight Rules
VFR
Cloud Levels
  • Few at 3,500' AGL
Temperature
32°C / 90°F
Dewpoint
23°C / 73°F
Heat Index
37°C / 99°F
Humidity
59%
Altimeter
29.82" Hg
Pressure
1009.82 hPa
Previous

3 hours ago

PGUM 170554Z 10007KT 10SM CLR 31/23 A2981 RMK AO2 SLP087 T03110233 10328 20289 56010
Observed
Jul-17 @ 05:54 UTC
Wind
  • 100° at 7 KTS
Visibility
16,100 meters
Flight Rules
VFR
Cloud Levels
  • Clear skies
Temperature
31°C / 88°F
Dewpoint
23°C / 73°F
Heat Index
36°C / 96°F
Humidity
62%
Altimeter
29.81" Hg
Pressure
1009.52 hPa